sensor_id;sensor_type;location;lat;lon;timestamp;P1;durP1;ratioP1;P2;durP2;ratioP2
68825;SDS011;55841;53.392;10.086;2023-02-24T00:03:47;10.00;;;1.42;;
68825;SDS011;55841;53.392;10.086;2023-02-24T00:06:12;6.03;;;1.40;;
68825;SDS011;55841;53.392;10.086;2023-02-24T00:08:38;9.93;;;1.55;;
68825;SDS011;55841;53.392;10.086;2023-02-24T00:11:08;7.13;;;1.25;;
68825;SDS011;55841;53.392;10.086;2023-02-24T00:13:35;9.80;;;1.10;;
68825;SDS011;55841;53.392;10.086;2023-02-24T00:16:01;7.85;;;1.88;;
68825;SDS011;55841;53.392;10.086;2023-02-24T00:18:28;5.55;;;1.10;;
68825;SDS011;55841;53.392;10.086;2023-02-24T00:20:53;3.30;;;0.93;;
68825;SDS011;55841;53.392;10.086;2023-02-24T00:23:19;11.45;;;1.50;;
68825;SDS011;55841;53.392;10.086;2023-02-24T00:25:44;7.13;;;1.42;;
68825;SDS011;55841;53.392;10.086;2023-02-24T00:28:09;6.60;;;1.73;;
68825;SDS011;55841;53.392;10.086;2023-02-24T00:30:35;8.20;;;1.33;;
68825;SDS011;55841;53.392;10.086;2023-02-24T00:33:00;7.53;;;1.70;;
68825;SDS011;55841;53.392;10.086;2023-02-24T00:35:26;8.15;;;1.05;;
68825;SDS011;55841;53.392;10.086;2023-02-24T00:37:51;6.47;;;1.58;;
68825;SDS011;55841;53.392;10.086;2023-02-24T00:40:17;7.40;;;1.13;;
68825;SDS011;55841;53.392;10.086;2023-02-24T00:42:42;6.15;;;1.13;;
68825;SDS011;55841;53.392;10.086;2023-02-24T00:45:08;10.02;;;1.27;;
68825;SDS011;55841;53.392;10.086;2023-02-24T00:47:35;13.50;;;1.50;;
68825;SDS011;55841;53.392;10.086;2023-02-24T00:50:02;6.25;;;1.10;;
68825;SDS011;55841;53.392;10.086;2023-02-24T00:52:27;7.07;;;1.20;;
68825;SDS011;55841;53.392;10.086;2023-02-24T00:54:53;4.47;;;0.68;;
68825;SDS011;55841;53.392;10.086;2023-02-24T00:57:18;7.00;;;1.33;;
68825;SDS011;55841;53.392;10.086;2023-02-24T00:59:44;9.60;;;1.45;;
68825;SDS011;55841;53.392;10.086;2023-02-24T01:02:10;8.70;;;1.10;;
68825;SDS011;55841;53.392;10.086;2023-02-24T01:04:35;5.85;;;1.40;;
68825;SDS011;55841;53.392;10.086;2023-02-24T01:07:01;7.30;;;2.00;;
68825;SDS011;55841;53.392;10.086;2023-02-24T01:09:28;9.90;;;1.70;;
68825;SDS011;55841;53.392;10.086;2023-02-24T01:11:54;8.65;;;1.42;;
68825;SDS011;55841;53.392;10.086;2023-02-24T01:14:21;10.20;;;1.63;;
68825;SDS011;55841;53.392;10.086;2023-02-24T01:16:48;7.63;;;1.45;;
68825;SDS011;55841;53.392;10.086;2023-02-24T01:19:15;12.95;;;1.75;;
68825;SDS011;55841;53.392;10.086;2023-02-24T01:24:07;6.43;;;1.17;;
68825;SDS011;55841;53.392;10.086;2023-02-24T01:26:32;11.48;;;1.60;;
68825;SDS011;55841;53.392;10.086;2023-02-24T01:28:58;9.43;;;1.60;;
68825;SDS011;55841;53.392;10.086;2023-02-24T01:31:23;4.93;;;1.20;;
68825;SDS011;55841;53.392;10.086;2023-02-24T01:33:49;4.50;;;1.13;;
68825;SDS011;55841;53.392;10.086;2023-02-24T01:36:19;7.47;;;1.52;;
68825;SDS011;55841;53.392;10.086;2023-02-24T01:38:48;8.50;;;1.42;;
68825;SDS011;55841;53.392;10.086;2023-02-24T01:41:18;3.88;;;1.02;;
68825;SDS011;55841;53.392;10.086;2023-02-24T01:43:55;5.20;;;0.98;;
68825;SDS011;55841;53.392;10.086;2023-02-24T01:46:21;8.57;;;1.45;;
68825;SDS011;55841;53.392;10.086;2023-02-24T01:48:47;5.55;;;0.90;;
68825;SDS011;55841;53.392;10.086;2023-02-24T01:51:13;7.13;;;1.13;;
68825;SDS011;55841;53.392;10.086;2023-02-24T01:53:39;11.88;;;1.73;;
68825;SDS011;55841;53.392;10.086;2023-02-24T01:56:04;10.82;;;1.42;;
68825;SDS011;55841;53.392;10.086;2023-02-24T01:58:30;6.97;;;1.33;;
68825;SDS011;55841;53.392;10.086;2023-02-24T02:00:57;7.55;;;1.40;;
68825;SDS011;55841;53.392;10.086;2023-02-24T02:03:24;8.70;;;1.60;;
68825;SDS011;55841;53.392;10.086;2023-02-24T02:05:58;8.65;;;1.58;;
68825;SDS011;55841;53.392;10.086;2023-02-24T02:08:25;5.50;;;0.80;;
68825;SDS011;55841;53.392;10.086;2023-02-24T02:10:53;7.00;;;1.15;;
68825;SDS011;55841;53.392;10.086;2023-02-24T02:13:19;9.77;;;1.55;;
68825;SDS011;55841;53.392;10.086;2023-02-24T02:15:46;5.45;;;1.02;;
68825;SDS011;55841;53.392;10.086;2023-02-24T02:26:49;9.10;;;1.63;;
68825;SDS011;55841;53.392;10.086;2023-02-24T02:32:56;12.38;;;1.63;;
68825;SDS011;55841;53.392;10.086;2023-02-24T02:36:24;9.75;;;1.40;;
68825;SDS011;55841;53.392;10.086;2023-02-24T02:38:36;9.00;;;1.20;;
68825;SDS011;55841;53.392;10.086;2023-02-24T02:41:18;7.05;;;1.27;;
68825;SDS011;55841;53.392;10.086;2023-02-24T02:44:06;7.97;;;1.67;;
68825;SDS011;55841;53.392;10.086;2023-02-24T02:47:07;5.90;;;1.40;;
68825;SDS011;55841;53.392;10.086;2023-02-24T02:49:39;4.50;;;1.30;;
68825;SDS011;55841;53.392;10.086;2023-02-24T02:52:11;10.70;;;1.70;;
68825;SDS011;55841;53.392;10.086;2023-02-24T02:54:54;9.00;;;1.50;;
68825;SDS011;55841;53.392;10.086;2023-02-24T02:57:35;5.15;;;0.90;;
68825;SDS011;55841;53.392;10.086;2023-02-24T03:00:05;9.23;;;1.30;;
68825;SDS011;55841;53.392;10.086;2023-02-24T03:02:44;5.65;;;1.17;;
68825;SDS011;55841;53.392;10.086;2023-02-24T03:05:14;4.25;;;1.08;;
68825;SDS011;55841;53.392;10.086;2023-02-24T03:07:43;10.57;;;1.30;;
68825;SDS011;55841;53.392;10.086;2023-02-24T03:10:14;5.22;;;1.10;;
68825;SDS011;55841;53.392;10.086;2023-02-24T03:12:44;4.55;;;1.27;;
68825;SDS011;55841;53.392;10.086;2023-02-24T03:15:14;6.85;;;1.55;;
68825;SDS011;55841;53.392;10.086;2023-02-24T03:17:42;15.93;;;1.92;;
68825;SDS011;55841;53.392;10.086;2023-02-24T03:20:35;6.68;;;1.20;;
68825;SDS011;55841;53.392;10.086;2023-02-24T03:23:10;12.23;;;1.40;;
68825;SDS011;55841;53.392;10.086;2023-02-24T03:25:42;5.63;;;1.20;;
68825;SDS011;55841;53.392;10.086;2023-02-24T03:28:14;4.00;;;1.33;;
68825;SDS011;55841;53.392;10.086;2023-02-24T03:30:56;5.65;;;1.05;;
68825;SDS011;55841;53.392;10.086;2023-02-24T03:33:31;5.78;;;1.40;;
68825;SDS011;55841;53.392;10.086;2023-02-24T03:36:00;6.72;;;1.00;;
68825;SDS011;55841;53.392;10.086;2023-02-24T03:38:26;7.93;;;1.27;;
68825;SDS011;55841;53.392;10.086;2023-02-24T03:40:54;4.13;;;1.05;;
68825;SDS011;55841;53.392;10.086;2023-02-24T03:43:22;8.02;;;1.50;;
68825;SDS011;55841;53.392;10.086;2023-02-24T03:45:57;2.92;;;0.60;;
68825;SDS011;55841;53.392;10.086;2023-02-24T03:48:24;6.68;;;1.83;;
68825;SDS011;55841;53.392;10.086;2023-02-24T03:50:51;4.47;;;1.05;;
68825;SDS011;55841;53.392;10.086;2023-02-24T03:56:24;5.53;;;0.80;;
68825;SDS011;55841;53.392;10.086;2023-02-24T04:01:50;5.03;;;1.35;;
68825;SDS011;55841;53.392;10.086;2023-02-24T04:07:05;4.45;;;1.30;;
68825;SDS011;55841;53.392;10.086;2023-02-24T04:09:47;4.65;;;0.90;;
68825;SDS011;55841;53.392;10.086;2023-02-24T04:12:50;5.95;;;1.15;;
68825;SDS011;55841;53.392;10.086;2023-02-24T04:15:47;6.05;;;0.95;;
68825;SDS011;55841;53.392;10.086;2023-02-24T04:18:19;7.18;;;1.33;;
68825;SDS011;55841;53.392;10.086;2023-02-24T04:20:46;4.35;;;1.08;;
68825;SDS011;55841;53.392;10.086;2023-02-24T04:23:14;3.60;;;0.73;;
68825;SDS011;55841;53.392;10.086;2023-02-24T04:25:42;5.57;;;1.17;;
68825;SDS011;55841;53.392;10.086;2023-02-24T04:28:10;7.78;;;1.42;;
68825;SDS011;55841;53.392;10.086;2023-02-24T04:30:37;7.57;;;1.25;;
68825;SDS011;55841;53.392;10.086;2023-02-24T04:33:06;6.72;;;1.13;;
68825;SDS011;55841;53.392;10.086;2023-02-24T04:35:31;4.97;;;1.20;;
68825;SDS011;55841;53.392;10.086;2023-02-24T04:37:57;6.78;;;1.30;;
68825;SDS011;55841;53.392;10.086;2023-02-24T04:40:23;4.13;;;0.70;;
68825;SDS011;55841;53.392;10.086;2023-02-24T04:42:49;10.18;;;1.35;;
68825;SDS011;55841;53.392;10.086;2023-02-24T04:45:20;5.97;;;1.13;;
68825;SDS011;55841;53.392;10.086;2023-02-24T04:47:48;13.35;;;1.60;;
68825;SDS011;55841;53.392;10.086;2023-02-24T04:50:19;8.65;;;1.58;;
68825;SDS011;55841;53.392;10.086;2023-02-24T04:53:20;6.43;;;1.33;;
68825;SDS011;55841;53.392;10.086;2023-02-24T04:55:41;6.75;;;1.08;;
68825;SDS011;55841;53.392;10.086;2023-02-24T04:58:11;6.82;;;1.80;;
68825;SDS011;55841;53.392;10.086;2023-02-24T05:00:39;5.18;;;1.27;;
68825;SDS011;55841;53.392;10.086;2023-02-24T05:03:05;7.57;;;1.38;;
68825;SDS011;55841;53.392;10.086;2023-02-24T05:05:31;8.55;;;1.55;;
68825;SDS011;55841;53.392;10.086;2023-02-24T05:07:59;9.68;;;1.90;;
68825;SDS011;55841;53.392;10.086;2023-02-24T05:10:30;3.15;;;1.02;;
68825;SDS011;55841;53.392;10.086;2023-02-24T05:13:06;4.15;;;1.08;;
68825;SDS011;55841;53.392;10.086;2023-02-24T05:15:33;12.68;;;1.67;;
68825;SDS011;55841;53.392;10.086;2023-02-24T05:18:03;6.55;;;1.48;;
68825;SDS011;55841;53.392;10.086;2023-02-24T05:20:30;6.80;;;1.42;;
68825;SDS011;55841;53.392;10.086;2023-02-24T05:22:55;3.97;;;1.30;;
68825;SDS011;55841;53.392;10.086;2023-02-24T05:25:21;9.88;;;1.40;;
68825;SDS011;55841;53.392;10.086;2023-02-24T05:27:47;7.68;;;1.80;;
68825;SDS011;55841;53.392;10.086;2023-02-24T05:30:12;7.22;;;1.90;;
68825;SDS011;55841;53.392;10.086;2023-02-24T05:32:38;6.63;;;1.52;;
68825;SDS011;55841;53.392;10.086;2023-02-24T05:35:04;3.45;;;1.15;;
68825;SDS011;55841;53.392;10.086;2023-02-24T05:37:30;6.57;;;1.48;;
68825;SDS011;55841;53.392;10.086;2023-02-24T05:39:55;8.75;;;1.33;;
68825;SDS011;55841;53.392;10.086;2023-02-24T05:42:21;9.18;;;1.20;;
68825;SDS011;55841;53.392;10.086;2023-02-24T05:44:46;4.82;;;1.48;;
68825;SDS011;55841;53.392;10.086;2023-02-24T05:47:12;7.63;;;1.58;;
68825;SDS011;55841;53.392;10.086;2023-02-24T05:49:37;5.57;;;1.50;;
68825;SDS011;55841;53.392;10.086;2023-02-24T05:52:04;8.60;;;1.33;;
68825;SDS011;55841;53.392;10.086;2023-02-24T05:54:32;6.43;;;1.20;;
68825;SDS011;55841;53.392;10.086;2023-02-24T05:57:01;7.35;;;1.60;;
68825;SDS011;55841;53.392;10.086;2023-02-24T05:59:32;9.60;;;1.90;;
68825;SDS011;55841;53.392;10.086;2023-02-24T06:01:59;8.63;;;2.03;;
68825;SDS011;55841;53.392;10.086;2023-02-24T06:04:29;10.25;;;1.85;;
68825;SDS011;55841;53.392;10.086;2023-02-24T06:06:55;7.13;;;1.52;;
68825;SDS011;55841;53.392;10.086;2023-02-24T06:09:20;11.07;;;1.70;;
68825;SDS011;55841;53.392;10.086;2023-02-24T06:11:46;7.55;;;1.60;;
68825;SDS011;55841;53.392;10.086;2023-02-24T06:14:11;5.40;;;1.30;;
68825;SDS011;55841;53.392;10.086;2023-02-24T06:16:38;6.03;;;1.73;;
68825;SDS011;55841;53.392;10.086;2023-02-24T06:19:17;8.90;;;1.60;;
68825;SDS011;55841;53.392;10.086;2023-02-24T06:24:58;10.45;;;1.75;;
68825;SDS011;55841;53.392;10.086;2023-02-24T06:27:23;11.57;;;1.75;;
68825;SDS011;55841;53.392;10.086;2023-02-24T06:29:49;9.57;;;1.83;;
68825;SDS011;55841;53.392;10.086;2023-02-24T06:32:20;9.70;;;2.15;;
68825;SDS011;55841;53.392;10.086;2023-02-24T06:34:47;9.82;;;1.35;;
68825;SDS011;55841;53.392;10.086;2023-02-24T06:37:15;8.65;;;1.73;;
68825;SDS011;55841;53.392;10.086;2023-02-24T06:39:40;4.85;;;1.40;;
68825;SDS011;55841;53.392;10.086;2023-02-24T06:42:06;6.70;;;1.42;;
68825;SDS011;55841;53.392;10.086;2023-02-24T06:44:32;7.25;;;1.55;;
68825;SDS011;55841;53.392;10.086;2023-02-24T06:47:00;6.47;;;1.60;;
68825;SDS011;55841;53.392;10.086;2023-02-24T06:49:26;11.13;;;1.70;;
68825;SDS011;55841;53.392;10.086;2023-02-24T06:51:52;5.22;;;1.30;;
68825;SDS011;55841;53.392;10.086;2023-02-24T06:54:18;9.98;;;2.15;;
68825;SDS011;55841;53.392;10.086;2023-02-24T06:56:44;6.20;;;1.30;;
68825;SDS011;55841;53.392;10.086;2023-02-24T06:59:10;7.40;;;1.33;;
68825;SDS011;55841;53.392;10.086;2023-02-24T07:01:35;8.68;;;1.55;;
68825;SDS011;55841;53.392;10.086;2023-02-24T07:04:01;5.03;;;1.50;;
68825;SDS011;55841;53.392;10.086;2023-02-24T07:06:30;8.18;;;1.58;;
68825;SDS011;55841;53.392;10.086;2023-02-24T07:08:58;8.10;;;1.75;;
68825;SDS011;55841;53.392;10.086;2023-02-24T07:11:24;6.80;;;1.40;;
68825;SDS011;55841;53.392;10.086;2023-02-24T07:13:49;4.53;;;1.40;;
68825;SDS011;55841;53.392;10.086;2023-02-24T07:16:16;6.47;;;1.70;;
68825;SDS011;55841;53.392;10.086;2023-02-24T07:18:45;10.23;;;2.15;;
68825;SDS011;55841;53.392;10.086;2023-02-24T07:21:10;10.40;;;2.20;;
68825;SDS011;55841;53.392;10.086;2023-02-24T07:23:37;9.15;;;1.90;;
68825;SDS011;55841;53.392;10.086;2023-02-24T07:26:13;7.68;;;2.00;;
68825;SDS011;55841;53.392;10.086;2023-02-24T07:28:44;4.68;;;1.85;;
68825;SDS011;55841;53.392;10.086;2023-02-24T07:33:39;5.38;;;1.75;;
68825;SDS011;55841;53.392;10.086;2023-02-24T07:36:05;7.00;;;1.92;;
68825;SDS011;55841;53.392;10.086;2023-02-24T07:38:32;6.57;;;2.03;;
68825;SDS011;55841;53.392;10.086;2023-02-24T07:40:58;9.10;;;2.03;;
68825;SDS011;55841;53.392;10.086;2023-02-24T07:43:23;6.50;;;2.22;;
68825;SDS011;55841;53.392;10.086;2023-02-24T07:45:49;6.07;;;2.38;;
68825;SDS011;55841;53.392;10.086;2023-02-24T07:48:14;9.18;;;2.17;;
68825;SDS011;55841;53.392;10.086;2023-02-24T07:50:40;6.78;;;2.20;;
68825;SDS011;55841;53.392;10.086;2023-02-24T07:53:05;8.55;;;2.20;;
68825;SDS011;55841;53.392;10.086;2023-02-24T07:55:33;6.70;;;2.42;;
68825;SDS011;55841;53.392;10.086;2023-02-24T07:58:00;8.57;;;2.38;;
68825;SDS011;55841;53.392;10.086;2023-02-24T08:00:26;8.55;;;2.35;;
68825;SDS011;55841;53.392;10.086;2023-02-24T08:02:53;12.52;;;2.40;;
68825;SDS011;55841;53.392;10.086;2023-02-24T08:05:20;6.97;;;2.38;;
68825;SDS011;55841;53.392;10.086;2023-02-24T08:07:46;6.07;;;2.15;;
68825;SDS011;55841;53.392;10.086;2023-02-24T08:10:11;7.28;;;2.55;;
68825;SDS011;55841;53.392;10.086;2023-02-24T08:12:37;9.98;;;2.53;;
68825;SDS011;55841;53.392;10.086;2023-02-24T08:15:04;8.38;;;2.10;;
68825;SDS011;55841;53.392;10.086;2023-02-24T08:17:30;8.15;;;2.25;;
68825;SDS011;55841;53.392;10.086;2023-02-24T08:19:56;5.72;;;1.55;;
68825;SDS011;55841;53.392;10.086;2023-02-24T08:22:21;6.47;;;2.15;;
68825;SDS011;55841;53.392;10.086;2023-02-24T08:24:54;7.65;;;2.30;;
68825;SDS011;55841;53.392;10.086;2023-02-24T08:27:24;4.72;;;1.40;;
68825;SDS011;55841;53.392;10.086;2023-02-24T08:29:52;5.35;;;1.90;;
68825;SDS011;55841;53.392;10.086;2023-02-24T08:32:18;8.07;;;2.13;;
68825;SDS011;55841;53.392;10.086;2023-02-24T08:34:44;4.35;;;1.63;;
68825;SDS011;55841;53.392;10.086;2023-02-24T08:37:12;7.32;;;2.00;;
68825;SDS011;55841;53.392;10.086;2023-02-24T08:39:37;6.20;;;1.75;;
68825;SDS011;55841;53.392;10.086;2023-02-24T08:42:03;8.18;;;2.30;;
68825;SDS011;55841;53.392;10.086;2023-02-24T08:44:28;4.45;;;1.48;;
68825;SDS011;55841;53.392;10.086;2023-02-24T08:46:54;4.63;;;1.50;;
68825;SDS011;55841;53.392;10.086;2023-02-24T08:49:20;1.38;;;1.08;;
68825;SDS011;55841;53.392;10.086;2023-02-24T08:51:47;8.02;;;2.10;;
68825;SDS011;55841;53.392;10.086;2023-02-24T08:54:14;4.63;;;1.70;;
68825;SDS011;55841;53.392;10.086;2023-02-24T08:56:43;6.30;;;2.15;;
68825;SDS011;55841;53.392;10.086;2023-02-24T08:59:11;7.18;;;2.17;;
68825;SDS011;55841;53.392;10.086;2023-02-24T09:01:38;4.57;;;2.00;;
68825;SDS011;55841;53.392;10.086;2023-02-24T09:04:11;11.27;;;2.78;;
68825;SDS011;55841;53.392;10.086;2023-02-24T09:06:42;8.63;;;2.65;;
68825;SDS011;55841;53.392;10.086;2023-02-24T09:09:14;8.38;;;2.75;;
68825;SDS011;55841;53.392;10.086;2023-02-24T09:11:43;9.93;;;2.97;;
68825;SDS011;55841;53.392;10.086;2023-02-24T09:14:10;9.75;;;3.00;;
68825;SDS011;55841;53.392;10.086;2023-02-24T09:16:37;9.00;;;3.17;;
68825;SDS011;55841;53.392;10.086;2023-02-24T09:19:03;16.58;;;3.65;;
68825;SDS011;55841;53.392;10.086;2023-02-24T09:21:28;9.77;;;3.33;;
68825;SDS011;55841;53.392;10.086;2023-02-24T09:23:54;7.68;;;3.10;;
68825;SDS011;55841;53.392;10.086;2023-02-24T09:26:20;8.98;;;4.10;;
68825;SDS011;55841;53.392;10.086;2023-02-24T09:28:46;10.50;;;3.28;;
68825;SDS011;55841;53.392;10.086;2023-02-24T09:31:11;13.27;;;4.50;;
68825;SDS011;55841;53.392;10.086;2023-02-24T09:33:37;8.82;;;3.95;;
68825;SDS011;55841;53.392;10.086;2023-02-24T09:36:13;11.38;;;3.97;;
68825;SDS011;55841;53.392;10.086;2023-02-24T09:38:41;9.40;;;3.85;;
68825;SDS011;55841;53.392;10.086;2023-02-24T09:41:21;9.25;;;3.55;;
68825;SDS011;55841;53.392;10.086;2023-02-24T09:43:48;9.05;;;3.53;;
68825;SDS011;55841;53.392;10.086;2023-02-24T09:46:13;10.45;;;4.10;;
68825;SDS011;55841;53.392;10.086;2023-02-24T09:51:24;9.88;;;4.00;;
68825;SDS011;55841;53.392;10.086;2023-02-24T09:53:51;9.98;;;4.13;;
68825;SDS011;55841;53.392;10.086;2023-02-24T09:59:43;8.35;;;2.90;;
68825;SDS011;55841;53.392;10.086;2023-02-24T10:04:51;10.40;;;4.15;;
68825;SDS011;55841;53.392;10.086;2023-02-24T10:07:28;11.80;;;4.00;;
68825;SDS011;55841;53.392;10.086;2023-02-24T10:10:01;11.48;;;4.57;;
68825;SDS011;55841;53.392;10.086;2023-02-24T10:12:31;10.43;;;3.75;;
68825;SDS011;55841;53.392;10.086;2023-02-24T10:15:05;10.45;;;3.70;;
68825;SDS011;55841;53.392;10.086;2023-02-24T10:17:38;8.63;;;3.20;;
68825;SDS011;55841;53.392;10.086;2023-02-24T10:20:11;10.30;;;3.72;;
68825;SDS011;55841;53.392;10.086;2023-02-24T10:31:12;5.47;;;2.15;;
68825;SDS011;55841;53.392;10.086;2023-02-24T10:33:45;8.63;;;2.65;;
68825;SDS011;55841;53.392;10.086;2023-02-24T10:36:14;11.23;;;3.25;;
68825;SDS011;55841;53.392;10.086;2023-02-24T10:38:43;9.35;;;3.00;;
68825;SDS011;55841;53.392;10.086;2023-02-24T10:41:09;7.57;;;3.00;;
68825;SDS011;55841;53.392;10.086;2023-02-24T10:43:36;9.48;;;3.60;;
68825;SDS011;55841;53.392;10.086;2023-02-24T10:46:02;9.70;;;3.88;;
68825;SDS011;55841;53.392;10.086;2023-02-24T10:48:27;9.43;;;3.30;;
68825;SDS011;55841;53.392;10.086;2023-02-24T10:50:54;9.88;;;3.60;;
68825;SDS011;55841;53.392;10.086;2023-02-24T10:53:23;8.95;;;3.50;;
68825;SDS011;55841;53.392;10.086;2023-02-24T10:55:50;10.95;;;3.75;;
68825;SDS011;55841;53.392;10.086;2023-02-24T10:58:21;14.45;;;4.22;;
68825;SDS011;55841;53.392;10.086;2023-02-24T11:00:47;11.45;;;4.43;;
68825;SDS011;55841;53.392;10.086;2023-02-24T11:03:13;11.13;;;3.72;;
68825;SDS011;55841;53.392;10.086;2023-02-24T11:05:40;10.07;;;3.42;;
68825;SDS011;55841;53.392;10.086;2023-02-24T11:08:15;11.38;;;4.30;;
68825;SDS011;55841;53.392;10.086;2023-02-24T11:10:42;13.75;;;4.63;;
68825;SDS011;55841;53.392;10.086;2023-02-24T11:13:11;13.45;;;4.68;;
68825;SDS011;55841;53.392;10.086;2023-02-24T11:15:41;10.48;;;4.43;;
68825;SDS011;55841;53.392;10.086;2023-02-24T11:18:17;12.00;;;4.25;;
68825;SDS011;55841;53.392;10.086;2023-02-24T11:20:51;10.52;;;4.07;;
68825;SDS011;55841;53.392;10.086;2023-02-24T11:23:24;13.10;;;4.55;;
68825;SDS011;55841;53.392;10.086;2023-02-24T11:26:01;13.75;;;5.05;;
68825;SDS011;55841;53.392;10.086;2023-02-24T11:36:54;12.73;;;4.57;;
68825;SDS011;55841;53.392;10.086;2023-02-24T11:42:24;10.15;;;4.20;;
68825;SDS011;55841;53.392;10.086;2023-02-24T11:45:06;13.68;;;5.20;;
68825;SDS011;55841;53.392;10.086;2023-02-24T11:47:52;11.80;;;5.03;;
68825;SDS011;55841;53.392;10.086;2023-02-24T11:52:59;13.38;;;5.30;;
68825;SDS011;55841;53.392;10.086;2023-02-24T11:55:38;13.52;;;5.65;;
68825;SDS011;55841;53.392;10.086;2023-02-24T11:58:16;14.30;;;5.85;;
68825;SDS011;55841;53.392;10.086;2023-02-24T12:00:56;11.50;;;4.95;;
68825;SDS011;55841;53.392;10.086;2023-02-24T12:03:39;12.60;;;5.10;;
68825;SDS011;55841;53.392;10.086;2023-02-24T12:06:21;12.57;;;4.75;;
68825;SDS011;55841;53.392;10.086;2023-02-24T12:08:55;10.32;;;4.57;;
68825;SDS011;55841;53.392;10.086;2023-02-24T12:16:46;12.30;;;5.35;;
68825;SDS011;55841;53.392;10.086;2023-02-24T12:21:58;12.40;;;5.28;;
68825;SDS011;55841;53.392;10.086;2023-02-24T12:24:31;13.05;;;5.63;;
68825;SDS011;55841;53.392;10.086;2023-02-24T12:27:02;14.07;;;5.90;;
68825;SDS011;55841;53.392;10.086;2023-02-24T12:29:46;12.43;;;5.18;;
68825;SDS011;55841;53.392;10.086;2023-02-24T12:38:25;11.27;;;4.53;;
68825;SDS011;55841;53.392;10.086;2023-02-24T12:41:17;11.57;;;4.85;;
68825;SDS011;55841;53.392;10.086;2023-02-24T12:43:56;13.35;;;5.13;;
68825;SDS011;55841;53.392;10.086;2023-02-24T12:46:42;12.57;;;5.03;;
68825;SDS011;55841;53.392;10.086;2023-02-24T12:52:33;13.77;;;4.88;;
68825;SDS011;55841;53.392;10.086;2023-02-24T12:58:14;12.35;;;5.10;;
68825;SDS011;55841;53.392;10.086;2023-02-24T13:06:17;15.23;;;5.28;;
68825;SDS011;55841;53.392;10.086;2023-02-24T13:11:52;13.23;;;5.10;;
68825;SDS011;55841;53.392;10.086;2023-02-24T13:14:40;12.95;;;5.30;;
68825;SDS011;55841;53.392;10.086;2023-02-24T13:19:39;14.35;;;5.65;;
68825;SDS011;55841;53.392;10.086;2023-02-24T13:27:25;13.98;;;5.28;;
68825;SDS011;55841;53.392;10.086;2023-02-24T13:32:40;16.55;;;5.97;;
68825;SDS011;55841;53.392;10.086;2023-02-24T13:37:41;16.13;;;5.40;;
68825;SDS011;55841;53.392;10.086;2023-02-24T13:42:39;16.13;;;6.15;;
68825;SDS011;55841;53.392;10.086;2023-02-24T13:53:00;11.82;;;4.22;;
68825;SDS011;55841;53.392;10.086;2023-02-24T13:55:49;13.65;;;5.40;;
68825;SDS011;55841;53.392;10.086;2023-02-24T13:58:42;15.60;;;5.38;;
68825;SDS011;55841;53.392;10.086;2023-02-24T14:01:19;14.13;;;5.43;;
68825;SDS011;55841;53.392;10.086;2023-02-24T14:04:01;15.10;;;5.88;;
68825;SDS011;55841;53.392;10.086;2023-02-24T14:06:49;12.45;;;5.07;;
68825;SDS011;55841;53.392;10.086;2023-02-24T14:09:20;19.73;;;5.70;;
68825;SDS011;55841;53.392;10.086;2023-02-24T14:11:59;12.55;;;4.60;;
68825;SDS011;55841;53.392;10.086;2023-02-24T14:14:27;16.65;;;4.70;;
68825;SDS011;55841;53.392;10.086;2023-02-24T14:19:22;15.52;;;4.82;;
68825;SDS011;55841;53.392;10.086;2023-02-24T14:21:56;14.65;;;4.97;;
68825;SDS011;55841;53.392;10.086;2023-02-24T14:24:23;13.77;;;5.53;;
68825;SDS011;55841;53.392;10.086;2023-02-24T14:26:52;13.68;;;5.85;;
68825;SDS011;55841;53.392;10.086;2023-02-24T14:29:21;14.55;;;5.18;;
68825;SDS011;55841;53.392;10.086;2023-02-24T14:31:50;13.70;;;5.60;;
68825;SDS011;55841;53.392;10.086;2023-02-24T14:34:19;17.75;;;5.85;;
68825;SDS011;55841;53.392;10.086;2023-02-24T14:36:48;19.10;;;5.95;;
68825;SDS011;55841;53.392;10.086;2023-02-24T14:41:44;16.65;;;6.32;;
68825;SDS011;55841;53.392;10.086;2023-02-24T14:44:26;21.15;;;6.60;;
68825;SDS011;55841;53.392;10.086;2023-02-24T14:47:00;18.38;;;6.65;;
68825;SDS011;55841;53.392;10.086;2023-02-24T14:49:29;15.18;;;4.88;;
68825;SDS011;55841;53.392;10.086;2023-02-24T14:52:08;14.10;;;4.93;;
68825;SDS011;55841;53.392;10.086;2023-02-24T14:54:44;16.75;;;3.70;;
68825;SDS011;55841;53.392;10.086;2023-02-24T14:57:34;11.63;;;3.00;;
68825;SDS011;55841;53.392;10.086;2023-02-24T15:00:05;10.48;;;3.20;;
68825;SDS011;55841;53.392;10.086;2023-02-24T15:02:42;13.63;;;3.30;;
68825;SDS011;55841;53.392;10.086;2023-02-24T15:05:12;8.35;;;2.08;;
68825;SDS011;55841;53.392;10.086;2023-02-24T15:07:38;9.82;;;3.28;;
68825;SDS011;55841;53.392;10.086;2023-02-24T15:10:15;10.80;;;3.00;;
68825;SDS011;55841;53.392;10.086;2023-02-24T15:12:44;6.22;;;1.73;;
68825;SDS011;55841;53.392;10.086;2023-02-24T15:15:20;13.32;;;3.33;;
68825;SDS011;55841;53.392;10.086;2023-02-24T15:17:50;13.27;;;3.25;;
68825;SDS011;55841;53.392;10.086;2023-02-24T15:20:37;9.93;;;2.60;;
68825;SDS011;55841;53.392;10.086;2023-02-24T15:23:04;10.70;;;2.72;;
68825;SDS011;55841;53.392;10.086;2023-02-24T15:25:40;11.45;;;2.92;;
68825;SDS011;55841;53.392;10.086;2023-02-24T15:28:19;12.52;;;2.53;;
68825;SDS011;55841;53.392;10.086;2023-02-24T15:34:00;9.25;;;2.08;;
68825;SDS011;55841;53.392;10.086;2023-02-24T15:36:23;15.93;;;2.58;;
68825;SDS011;55841;53.392;10.086;2023-02-24T15:38:55;17.02;;;2.53;;
68825;SDS011;55841;53.392;10.086;2023-02-24T15:41:36;13.77;;;1.65;;
68825;SDS011;55841;53.392;10.086;2023-02-24T15:44:20;11.15;;;1.67;;
68825;SDS011;55841;53.392;10.086;2023-02-24T15:46:55;6.95;;;1.73;;
68825;SDS011;55841;53.392;10.086;2023-02-24T15:49:22;6.30;;;1.35;;
68825;SDS011;55841;53.392;10.086;2023-02-24T15:51:49;5.28;;;1.23;;
68825;SDS011;55841;53.392;10.086;2023-02-24T15:54:28;9.52;;;1.88;;
68825;SDS011;55841;53.392;10.086;2023-02-24T15:57:02;11.77;;;1.67;;
68825;SDS011;55841;53.392;10.086;2023-02-24T15:59:28;10.13;;;1.35;;
68825;SDS011;55841;53.392;10.086;2023-02-24T16:01:54;4.45;;;1.05;;
68825;SDS011;55841;53.392;10.086;2023-02-24T16:04:20;7.78;;;1.40;;
68825;SDS011;55841;53.392;10.086;2023-02-24T16:06:48;11.15;;;2.08;;
68825;SDS011;55841;53.392;10.086;2023-02-24T16:09:16;8.82;;;0.85;;
68825;SDS011;55841;53.392;10.086;2023-02-24T16:11:43;8.13;;;1.27;;
68825;SDS011;55841;53.392;10.086;2023-02-24T16:14:12;4.97;;;1.20;;
68825;SDS011;55841;53.392;10.086;2023-02-24T16:16:40;7.20;;;1.33;;
68825;SDS011;55841;53.392;10.086;2023-02-24T16:19:06;3.83;;;0.77;;
68825;SDS011;55841;53.392;10.086;2023-02-24T16:21:34;6.35;;;1.25;;
68825;SDS011;55841;53.392;10.086;2023-02-24T16:23:59;7.55;;;1.38;;
68825;SDS011;55841;53.392;10.086;2023-02-24T16:26:25;7.80;;;1.15;;
68825;SDS011;55841;53.392;10.086;2023-02-24T16:28:54;8.65;;;1.35;;
68825;SDS011;55841;53.392;10.086;2023-02-24T16:31:24;4.03;;;1.10;;
68825;SDS011;55841;53.392;10.086;2023-02-24T16:33:50;8.88;;;1.20;;
68825;SDS011;55841;53.392;10.086;2023-02-24T16:36:16;6.13;;;1.80;;
68825;SDS011;55841;53.392;10.086;2023-02-24T16:38:42;7.03;;;1.20;;
68825;SDS011;55841;53.392;10.086;2023-02-24T16:41:09;9.80;;;1.75;;
68825;SDS011;55841;53.392;10.086;2023-02-24T16:43:36;7.65;;;1.58;;
68825;SDS011;55841;53.392;10.086;2023-02-24T16:46:03;9.50;;;1.48;;
68825;SDS011;55841;53.392;10.086;2023-02-24T16:48:31;11.05;;;1.55;;
68825;SDS011;55841;53.392;10.086;2023-02-24T16:50:58;6.10;;;1.10;;